Home > Products > Valid Products > TAF

000
FTUS44 KOHX 281100
TAFCKV
TAF
KCKV 281126Z 2812/2912 01004KT P6SM SKC=



000
FTUS44 KOHX 281100
TAFCSV
TAF
KCSV 281126Z 2812/2912 33007KT P6SM SKC
      TEMPO 2812/2814 BKN020 BKN040
     FM281400 34006KT P6SM SKC=



000
FTUS44 KOHX 281100
TAFBNA
TAF
KBNA 281126Z 2812/2912 34004KT P6SM SKC=



000
FTUS44 KOHX 280900 AAC
TAFCSV
TAF AMD
KCSV 280934Z 2810/2906 32005KT P6SM OVC040
     FM281100 34005KT P6SM SCT050=



000
FTUS44 KOHX 280800 AAB
TAFCSV
TAF AMD
KCSV 280856Z 2809/2906 32006G20KT P6SM BKN020 BKN025
     FM281100 34005KT P6SM SCT050=



000
FTUS44 KOHX 280800 AAA
TAFCSV
TAF AMD
KCSV 280803Z 2808/2906 32007KT P6SM SKC
     FM281100 34005KT P6SM SCT050=



000
FTUS44 KOHX 280800 AAA
TAFCSV
TAF AMD
KCSV 280803Z 2808/2906 32007KT P6SM SKC
     FM281100 34005KT P6SM SCT050=



000
FTUS44 KOHX 280500
TAFBNA
TAF
KBNA 280530Z 2806/2906 33006KT P6SM SCT060
     FM281000 34005KT P6SM SCT050=



000
FTUS44 KOHX 280500
TAFCKV
TAF
KCKV 280530Z 2806/2906 34005KT P6SM BKN050
     FM280900 35005KT P6SM SCT050=



000
FTUS44 KOHX 280500
TAFCSV
TAF
KCSV 280530Z 2806/2906 32009G18KT P6SM SCT030 OVC040
     FM281100 34005KT P6SM SCT050=



000
FTUS44 KOHX 280500
TAFBNA
TAF
KBNA 280530Z 2806/2906 33006KT P6SM SCT060
     FM281000 34005KT P6SM SCT050=



000
FTUS44 KOHX 280500
TAFCKV
TAF
KCKV 280530Z 2806/2906 34005KT P6SM BKN050
     FM280900 35005KT P6SM SCT050=



000
FTUS44 KOHX 280500
TAFCSV
TAF
KCSV 280530Z 2806/2906 32009G18KT P6SM SCT030 OVC040
     FM281100 34005KT P6SM SCT050=



000
FTUS44 KOHX 280500 AAA
TAFCSV
TAF AMD
KCSV 280510Z 2805/2824 32009G18KT P6SM SCT030 OVC050=



000
FTUS44 KOHX 280500 AAA
TAFCSV
TAF AMD
KCSV 280510Z 2805/2824 32009G18KT P6SM SCT030 OVC050=



000
FTUS44 KOHX 272300
TAFBNA
TAF
KBNA 272324Z 2800/2824 34011KT P6SM SCT020 OVC040
      TEMPO 2800/2802 P6SM BKN025 OVC040
     FM280500 34007KT P6SM SCT040=



000
FTUS44 KOHX 272300
TAFCKV
TAF
KCKV 272324Z 2800/2824 34013KT P6SM OVC035
     FM280300 35005KT P6SM SCT040=



000
FTUS44 KOHX 272300
TAFCKV
TAF
KCKV 272324Z 2800/2824 34013KT P6SM OVC035
     FM280300 35005KT P6SM SCT040=



000
FTUS44 KOHX 272300
TAFBNA
TAF
KBNA 272324Z 2800/2824 34011KT P6SM SCT020 OVC040
      TEMPO 2800/2802 P6SM BKN025 OVC040
     FM280500 34007KT P6SM SCT040=



000
FTUS44 KOHX 272300
TAFCSV
TAF
KCSV 272324Z 2800/2824 33010KT P6SM SCT030 OVC050
     FM280200 33005KT P6SM SCT030=



000
FTUS44 KOHX 272300
TAFCSV
TAF
KCSV 272324Z 2800/2824 33010KT P6SM SCT030 OVC050
     FM280200 33005KT P6SM SCT030=



000
FTUS44 KOHX 271900 AAA
TAFCKV
TAF AMD
KCKV 271936Z 2720/2818 33013KT P6SM VCSH OVC035
     FM280000 35005KT P6SM FEW040=



000
FTUS44 KOHX 271700
TAFCSV
TAF
KCSV 271720Z 2718/2818 34010KT P6SM SCT030
     FM272000 34011KT P6SM VCSH BKN025
     FM280200 33005KT P6SM SCT030=



000
FTUS44 KOHX 271700
TAFBNA
TAF
KBNA 271720Z 2718/2818 35011KT P6SM VCSH SCT020 BKN040
     FM280100 34007KT P6SM FEW040=



000
FTUS44 KOHX 271700
TAFCKV
TAF
KCKV 271720Z 2718/2818 35012KT P6SM VCSH SCT020 BKN040
     FM280000 35005KT P6SM FEW040=



000
FTUS44 KOHX 271500 AAA
TAFCSV
TAF AMD
KCSV 271538Z 2716/2812 36011G16KT P6SM SCT025
     FM272100 34011KT P6SM VCSH BKN025
     FM280100 34007KT P6SM SCT035=



000
FTUS44 KOHX 271300 AAB
TAFCKV
TAF AMD
KCKV 271306Z 2713/2812 31005KT P6SM SKC
     FM271400 35005KT P6SM OVC050
     FM280000 33008KT P6SM SKC
     FM280900 02003KT P6SM SKC=



000
FTUS44 KOHX 271300 AAB
TAFCKV
TAF AMD
KCKV 271306Z 2713/2812 31005KT P6SM SKC
     FM271400 35005KT P6SM OVC050
     FM280000 33008KT P6SM SKC
     FM280900 02003KT P6SM SKC=



000
FTUS44 KOHX 271200 AAA
TAFCKV
TAF AMD
KCKV 271202Z 2712/2812 29003KT 5SM BR SKC
     FM271400 35005KT P6SM OVC050
     FM280000 33008KT P6SM SKC
     FM280900 02003KT P6SM SKC=



000
FTUS44 KOHX 271100 AAA
TAFBNA
TAF AMD
KBNA 271137Z 2712/2812 32006KT P6SM SKC
     FM271500 35010KT P6SM OVC050
     FM280100 34009KT P6SM SKC
     FM280900 35003KT P6SM SKC=



000
FTUS44 KOHX 271100 AAA
TAFBNA
TAF AMD
KBNA 271137Z 2712/2812 32006KT P6SM SKC
     FM271500 35010KT P6SM OVC050
     FM280100 34009KT P6SM SKC
     FM280900 35003KT P6SM SKC=



000
FTUS44 KOHX 271100
TAFCKV
TAF
KCKV 271128Z 2712/2812 31004KT P6SM SKC
     FM271400 35005KT P6SM OVC050
     FM280000 33008KT P6SM SKC
     FM280900 02003KT P6SM SKC=



000
FTUS44 KOHX 271100
TAFBNA
TAF
KBNA 271128Z 2712/2812 32006KT P6SM SKC
     FM271500 35010KT P6SM OVC150
     FM280100 34009KT P6SM SKC
     FM280900 35003KT P6SM SKC=



000
FTUS44 KOHX 271100
TAFCSV
TAF
KCSV 271128Z 2712/2812 36007KT P6SM OVC015
     FM271600 34009KT P6SM OVC025
     FM271800 34009G18KT P6SM OVC050
     FM272100 32010KT P6SM OVC025
     FM280400 34007KT P6SM OVC050
     FM280700 34005KT P6SM SKC=



000
FTUS44 KOHX 271000 AAE
TAFCSV
TAF AMD
KCSV 271006Z 2710/2806 36010KT P6SM OVC015
     FM271400 36009KT 5SM BR OVC015
     FM271600 36009KT P6SM OVC025
     FM271800 33010G16KT P6SM OVC050=



000
FTUS44 KOHX 270900 AAC
TAFCKV
TAF AMD
KCKV 270957Z 2710/2806 30004KT P6SM SKC
     FM271100 35007KT P6SM OVC100
     FM271600 33010G18KT P6SM BKN050 OVC100
     FM280300 34006KT P6SM SKC=



000
FTUS44 KOHX 270900 AAD
TAFCSV
TAF AMD
KCSV 270913Z 2709/2806 02008KT P6SM BKN011 OVC018
     FM271000 35010KT 2SM BR OVC007
     FM271400 36009KT 5SM BR OVC015
     FM271600 36009KT P6SM OVC025
     FM271800 33010G16KT P6SM OVC050=



000
FTUS44 KOHX 270900 AAC
TAFCSV
TAF AMD
KCSV 270908Z 2709/2806 36008KT P6SM BKN009 OVC017
     FM271000 35010KT 2SM BR OVC007
     FM271400 36009KT 5SM BR OVC015
     FM271600 36009KT P6SM OVC025
     FM271800 33010G16KT P6SM OVC050=



000
FTUS44 KOHX 270800 AAB
TAFCKV
TAF AMD
KCKV 270858Z 2709/2806 32004KT 5SM BR SKC
     FM271100 35007KT P6SM OVC100
     FM271600 33010G18KT P6SM BKN050 OVC100
     FM280300 34006KT P6SM SKC=



000
FTUS44 KOHX 270800 AAB
TAFCKV
TAF AMD
KCKV 270858Z 2709/2806 32004KT 5SM BR SKC
     FM271100 35007KT P6SM OVC100
     FM271600 33010G18KT P6SM BKN050 OVC100
     FM280300 34006KT P6SM SKC=



000
FTUS44 KOHX 270800 AAB
TAFCSV
TAF AMD
KCSV 270858Z 2709/2806 36008KT P6SM OVC011
     FM271000 35010KT 2SM BR OVC007
     FM271400 36009KT 5SM BR OVC015
     FM271600 36009KT P6SM OVC025
     FM271800 33010G16KT P6SM OVC050=



000
FTUS44 KOHX 270800 AAA
TAFCSV
TAF AMD
KCSV 270801Z 2708/2806 02007KT P6SM BKN008 OVC014
     FM271000 35010KT 2SM BR OVC007
     FM271400 36009KT 5SM BR OVC015
     FM271600 36009KT P6SM OVC025
     FM271800 33010G16KT P6SM OVC050=



000
FTUS44 KOHX 270800 AAB
TAFBNA
TAF AMD
KBNA 270800Z 2708/2806 36005KT P6SM BKN030
     FM271000 35008KT P6SM SKC
     FM271200 35007KT P6SM OVC100
     FM271800 34010G18KT P6SM BKN050 OVC100
     FM280300 34006KT P6SM SKC=



000
FTUS44 KOHX 270600 AAA
TAFBNA
TAF AMD
KBNA 270637Z 2707/2806 34006KT P6SM OVC030
     FM270900 35008KT P6SM SKC
     FM271200 35007KT P6SM OVC100
     FM271800 34010G18KT P6SM BKN050 OVC100
     FM280300 34006KT P6SM SKC=



000
FTUS44 KOHX 270600 AAA
TAFBNA
TAF AMD
KBNA 270637Z 2707/2806 34006KT P6SM OVC030
     FM270900 35008KT P6SM SKC
     FM271200 35007KT P6SM OVC100
     FM271800 34010G18KT P6SM BKN050 OVC100
     FM280300 34006KT P6SM SKC=



000
FTUS44 KOHX 270500 AAA
TAFCKV
TAF AMD
KCKV 270521Z 2705/2806 33006KT P6SM SKC
     FM271100 35007KT P6SM OVC100
     FM271600 33010G18KT P6SM BKN050 OVC100
     FM280300 34006KT P6SM SKC=



000
FTUS44 KOHX 270500 AAA
TAFCKV
TAF AMD
KCKV 270521Z 2705/2806 33006KT P6SM SKC
     FM271100 35007KT P6SM OVC100
     FM271600 33010G18KT P6SM BKN050 OVC100
     FM280300 34006KT P6SM SKC=



000
FTUS44 KOHX 270520
TAFCSV

TAF
KCSV 270520Z 2706/2806 04009KT P6SM -RA BKN008 OVC012
     FM270800 35010KT 2SM BR OVC007
     FM271400 36009KT 5SM BR OVC015
     FM271600 36009KT P6SM OVC025
     FM271800 33010G16KT P6SM OVC050=



000
FTUS44 KOHX 270500
TAFBNA
TAF
KBNA 270520Z 2706/2806 35010G18KT P6SM OVC025
     FM270700 35008KT P6SM SKC
     FM271200 35007KT P6SM OVC100
     FM271800 34010G18KT P6SM BKN050 OVC100
     FM280300 34006KT P6SM SKC=



000
FTUS44 KOHX 270500
TAFCSV
TAF
KCSV 270520Z 2706/2806 04009KT P6SM -RA BKN008 OVC012
     FM270800 35010KT 2SM BR OVC007
     FM271400 36009KT 5SM BR OVC015
     FM271600 36009KT P6SM OVC025
     FM271800 33010G16KT P6SM OVC050=



000
FTUS44 KOHX 270500
TAFCKV
TAF
KCKV 270520Z 2706/2806 33006KT P6SM SKC
     FM271100 35007KT P6SM OVC100
     FM271600 33010G18KT P6SM BKN050 OVC100
     FM280300 34006KT P6SM SKC=



000
FTUS44 KOHX 270500
TAFBNA
TAF
KBNA 270520Z 2706/2806 35010G18KT P6SM OVC025
     FM270700 35008KT P6SM SKC
     FM271200 35007KT P6SM OVC100
     FM271800 34010G18KT P6SM BKN050 OVC100
     FM280300 34006KT P6SM SKC=



000
FTUS44 KOHX 270500
TAFCKV
TAF
KCKV 270520Z 2706/2806 33006KT P6SM SKC
     FM271100 35007KT P6SM OVC100
     FM271600 33010G18KT P6SM BKN050 OVC100
     FM280300 34006KT P6SM SKC=



000
FTUS44 KOHX 270500
TAFCSV
TAF
KCSV 270520Z 2706/2806 04009KT P6SM -RA BKN008 OVC012
     FM270800 35010KT 2SM BR OVC007
     FM271400 36009KT 5SM BR OVC015
     FM271600 36009KT P6SM OVC025
     FM271800 33010G16KT P6SM OVC050=



000
FTUS44 KOHX 270520
TAFBNA

TAF
KBNA 270520Z 2706/2806 35010G18KT P6SM OVC025
     FM270700 35008KT P6SM SKC
     FM271200 35007KT P6SM OVC100
     FM271800 34010G18KT P6SM BKN050 OVC100
     FM280300 34006KT P6SM SKC=



000
FTUS44 KOHX 270520
TAFCSV

TAF
KCSV 270520Z 2706/2806 04009KT P6SM -RA BKN008 OVC012
     FM270800 35010KT 2SM BR OVC007
     FM271400 36009KT 5SM BR OVC015
     FM271600 36009KT P6SM OVC025
     FM271800 33010G16KT P6SM OVC050=



000
FTUS44 KOHX 270520
TAFBNA

TAF
KBNA 270520Z 2706/2806 35010G18KT P6SM OVC025
     FM270700 35008KT P6SM SKC
     FM271200 35007KT P6SM OVC100
     FM271800 34010G18KT P6SM BKN050 OVC100
     FM280300 34006KT P6SM SKC=



000
FTUS44 KOHX 270500 AAB
TAFCSV
TAF AMD
KCSV 270516Z 2705/2724 04009KT 6SM -RA BR BKN008 OVC012
     FM270800 35010KT 1SM BR OVC007
     FM271400 36009KT 5SM BR OVC015
     FM271600 36009KT P6SM OVC025
     FM271800 33010G16KT P6SM OVC050=



000
FTUS44 KOHX 270500 AAB
TAFCSV
TAF AMD
KCSV 270516Z 2705/2724 04009KT 6SM -RA BR BKN008 OVC012
     FM270800 35010KT 1SM BR OVC007
     FM271400 36009KT 5SM BR OVC015
     FM271600 36009KT P6SM OVC025
     FM271800 33010G16KT P6SM OVC050=



000
FTUS44 KOHX 270300 AAB
TAFBNA
TAF AMD
KBNA 270348Z 2704/2724 35010G18KT P6SM OVC018
     FM270700 35008KT P6SM SKC
     FM271200 35007KT P6SM OVC100
     FM271700 34010G18KT P6SM OVC100=



000
FTUS44 KOHX 270200 AAA
TAFCSV
TAF AMD
KCSV 270223Z 2702/2724 36012KT 5SM -RA BR OVC010
     FM270800 35010KT 1SM BR OVC007
     FM271400 36009KT 5SM BR OVC015
     FM271600 36009KT P6SM OVC025
     FM271800 33010G16KT P6SM OVC050=



000
FTUS44 KOHX 270200 AAA
TAFBNA
TAF AMD
KBNA 270222Z 2702/2724 34006KT P6SM -RA BKN025 OVC050
     FM270400 35008KT P6SM SKC
     FM271200 35007KT P6SM OVC100
     FM271700 34010G18KT P6SM OVC100=



000
FTUS44 KOHX 262300
TAFBNA
TAF
KBNA 262323Z 2700/2724 34010G18KT P6SM -RA SCT015 OVC060
      TEMPO 2700/2703 3SM -RA OVC012
     FM270300 35008KT P6SM OVC070
     FM270500 36008KT P6SM SKC
     FM271200 35007KT P6SM OVC100
     FM271700 34010G18KT P6SM OVC100=



000
FTUS44 KOHX 262300
TAFCKV
TAF
KCKV 262323Z 2700/2724 01007KT P6SM -RA OVC070
      TEMPO 2700/2702 OVC020
     FM270200 36004KT P6SM SKC
     FM271100 35007KT P6SM OVC100
     FM271600 33010G18KT P6SM OVC100=



000
FTUS44 KOHX 262300
TAFCSV
TAF
KCSV 262323Z 2700/2724 35012G20KT 3SM BR OVC005
     FM270200 36010KT 3SM RA BR OVC007
     FM270800 35010KT 1SM BR OVC004
     FM271400 36009KT 5SM BR OVC015
     FM271600 36009KT P6SM OVC025
     FM271800 33010G16KT P6SM OVC050=



000
FTUS44 KOHX 262000 AAB
TAFCKV
TAF AMD
KCKV 262046Z 2621/2718 34013G20KT 6SM -SHRA BR OVC010
     FM270100 35012KT 6SM -SHRA BR OVC020
     FM270400 34007KT P6SM OVC035
     FM270900 35007KT P6SM BKN100=



000
FTUS44 KOHX 262000 AAA
TAFCSV
TAF AMD
KCSV 262046Z 2621/2718 34012KT 5SM -SHRA BR OVC009
     FM270200 36010KT 4SM -SHRA BR OVC004
     FM270700 35010KT P6SM OVC007
     FM271500 36009KT P6SM OVC015=



000
FTUS44 KOHX 261900 AAA
TAFBNA
TAF AMD
KBNA 261952Z 2620/2718 34012KT 4SM -SHRA BR OVC010
     FM270300 35008KT P6SM OVC025
     FM270600 36008KT P6SM BKN035
     FM271200 35007KT P6SM BKN100=



000
FTUS44 KOHX 261900 AAA
TAFBNA
TAF AMD
KBNA 261952Z 2620/2718 34012KT 4SM -SHRA BR OVC010
     FM270300 35008KT P6SM OVC025
     FM270600 36008KT P6SM BKN035
     FM271200 35007KT P6SM BKN100=



000
FTUS44 KOHX 261900 AAA
TAFCKV
TAF AMD
KCKV 261901Z 2619/2718 35013KT 2SM -SHRA BR BKN006 OVC012
     FM270100 35012KT 6SM -SHRA BR OVC020
     FM270400 34007KT P6SM OVC035
     FM270900 35007KT P6SM BKN100=



000
FTUS44 KOHX 261700
TAFCKV
TAF
KCKV 261720Z 2618/2718 36013KT P6SM OVC015
     FM261900 34013KT 6SM -SHRA BR OVC008
     FM270100 35012KT 6SM -SHRA BR OVC020
     FM270400 34007KT P6SM OVC035
     FM270900 35007KT P6SM BKN100=



000
FTUS44 KOHX 261700
TAFBNA
TAF
KBNA 261720Z 2618/2718 29010G20KT 5SM HZ OVC020
     FM261900 34010KT 6SM -SHRA BR OVC010
     FM270300 35008KT P6SM OVC025
     FM270600 36008KT P6SM BKN035
     FM271200 35007KT P6SM BKN100=



000
FTUS44 KOHX 261700
TAFCSV
TAF
KCSV 261720Z 2618/2718 20009KT P6SM -SHRA OVC025
     FM262100 25010G20KT 5SM -RA BR OVC015
     FM262300 28010G18KT 2SM -RA BR OVC007
     FM270200 36010KT 4SM -RA BR OVC004
     FM270700 35010KT P6SM OVC007
     FM271500 36009KT P6SM OVC015=



000
FTUS44 KOHX 261300 AAA
TAFCKV
TAF AMD
KCKV 261304Z 2613/2712 30011KT 5SM -SHRA BR SCT005 OVC035
      TEMPO 2613/2615 2SM BR BKN005 OVC030
     FM261600 32010G18KT 4SM -SHRA BR OVC015
     FM261800 35010G20KT 4SM -SHRA BR OVC008
     FM262300 35010G20KT 6SM -SHRA BR OVC020
     FM270100 35006KT P6SM BKN100=



000
FTUS44 KOHX 261200 AAB
TAFCSV
TAF AMD
KCSV 261243Z 2613/2712 20009G18KT P6SM VCSH SCT015 BKN035
      TEMPO 2613/2614 2SM -SHRA OVC015
     FM261800 20009KT P6SM -SHRA OVC025
     FM262100 25010G20KT 5SM -RA BR OVC015
     FM262300 28010G18KT 2SM -RA BR OVC007
     FM270200 36010KT 4SM -RA BR OVC004
     FM270700 35010KT P6SM OVC007=



000
FTUS44 KOHX 261200 AAB
TAFCSV
TAF AMD
KCSV 261243Z 2613/2712 20009G18KT P6SM VCSH SCT015 BKN035
      TEMPO 2613/2614 2SM -SHRA OVC015
     FM261800 20009KT P6SM -SHRA OVC025
     FM262100 25010G20KT 5SM -RA BR OVC015
     FM262300 28010G18KT 2SM -RA BR OVC007
     FM270200 36010KT 4SM -RA BR OVC004
     FM270700 35010KT P6SM OVC007=



000
FTUS44 KOHX 261200 AAA
TAFCSV
TAF AMD
KCSV 261231Z 2613/2712 20009G18KT P6SM VCSH BKN035 OVC045
     FM261800 20009KT P6SM -SHRA OVC025
     FM262100 25010G20KT 5SM -RA BR OVC015
     FM262300 28010G18KT 2SM -RA BR OVC007
     FM270200 36010KT 4SM -RA BR OVC004
     FM270700 35010KT P6SM OVC007=



000
FTUS44 KOHX 261200 AAA
TAFCSV
TAF AMD
KCSV 261231Z 2613/2712 20009G18KT P6SM VCSH BKN035 OVC045
     FM261800 20009KT P6SM -SHRA OVC025
     FM262100 25010G20KT 5SM -RA BR OVC015
     FM262300 28010G18KT 2SM -RA BR OVC007
     FM270200 36010KT 4SM -RA BR OVC004
     FM270700 35010KT P6SM OVC007=



000
FTUS44 KOHX 261100
TAFCKV
TAF
KCKV 261135Z 2612/2712 30011KT 5SM -SHRA BR SCT005 OVC035
      TEMPO 2612/2614 2SM BR BKN005 OVC030
     FM261500 32010G18KT 4SM -SHRA BR OVC015
     FM261800 35010G20KT 4SM -SHRA BR OVC009
     FM262300 35010G20KT 6SM -SHRA BR OVC020
     FM270100 35006KT P6SM BKN100=



000
FTUS44 KOHX 261100
TAFBNA
TAF
KBNA 261135Z 2612/2712 21009KT P6SM VCSH BKN035 OVC050
     FM261500 29010G20KT 6SM -SHRA BR OVC020
     FM261900 34010G20KT 4SM -SHRA BR OVC010
     FM270300 34010KT P6SM BKN100=



000
FTUS44 KOHX 261100
TAFBNA
TAF
KBNA 261135Z 2612/2712 21009KT P6SM VCSH BKN035 OVC050
     FM261500 29010G20KT 6SM -SHRA BR OVC020
     FM261900 34010G20KT 4SM -SHRA BR OVC010
     FM270300 34010KT P6SM BKN100=



000
FTUS44 KOHX 261100
TAFCSV
TAF
KCSV 261135Z 2612/2712 20012KT P6SM VCSH BKN040 OVC060
     FM261800 20009KT P6SM -SHRA OVC025
     FM262100 25010G20KT 5SM -RA BR OVC015
     FM262300 28010G18KT 2SM -RA BR OVC007
     FM270200 36010KT 4SM -RA BR OVC004
     FM270700 35010KT P6SM OVC007=



000
FTUS44 KOHX 261100
TAFCKV
TAF
KCKV 261135Z 2612/2712 30011KT 5SM -SHRA BR SCT005 OVC035
      TEMPO 2612/2614 2SM BR BKN005 OVC030
     FM261500 32010G18KT 4SM -SHRA BR OVC015
     FM261800 35010G20KT 4SM -SHRA BR OVC009
     FM262300 35010G20KT 6SM -SHRA BR OVC020
     FM270100 35006KT P6SM BKN100=



000
FTUS44 KOHX 261100
TAFCSV
TAF
KCSV 261135Z 2612/2712 20012KT P6SM VCSH BKN040 OVC060
     FM261800 20009KT P6SM -SHRA OVC025
     FM262100 25010G20KT 5SM -RA BR OVC015
     FM262300 28010G18KT 2SM -RA BR OVC007
     FM270200 36010KT 4SM -RA BR OVC004
     FM270700 35010KT P6SM OVC007=



000
FTUS44 KOHX 261000 AAH
TAFCKV
TAF AMD
KCKV 261012Z 2610/2706 30011KT 6SM BR VCTS SCT005 BKN030CB OVC050
      TEMPO 2610/2612 2SM BR BKN005
     FM261500 32010G18KT 4SM -RA BR OVC010
     FM261800 33010G20KT 2SM RA BR OVC007
     FM262000 34010G20KT 4SM -RA BR OVC015
     FM270000 35007KT P6SM BKN100=



000
FTUS44 KOHX 261000 AAH
TAFCKV
TAF AMD
KCKV 261012Z 2610/2706 30011KT 6SM BR VCTS SCT005 BKN030CB OVC050
      TEMPO 2610/2612 2SM BR BKN005
     FM261500 32010G18KT 4SM -RA BR OVC010
     FM261800 33010G20KT 2SM RA BR OVC007
     FM262000 34010G20KT 4SM -RA BR OVC015
     FM270000 35007KT P6SM BKN100=



000
FTUS44 KOHX 260900 AAF
TAFBNA
TAF AMD
KBNA 260953Z 2610/2706 23010KT 5SM -SHRA BR OVC040
      TEMPO 2610/2611 30010G20KT 2SM -TSRA BR BKN030CB OVC040
     FM261100 30011KT P6SM BKN030 OVC050
     FM261800 33010G20KT 2SM RA BR OVC011
     FM262100 34010G20KT 4SM RA BR OVC015
     FM270200 34010KT P6SM BKN100=



000
FTUS44 KOHX 260900 AAG
TAFCKV
TAF AMD
KCKV 260949Z 2610/2706 30011KT 6SM -SHRA VCTS BKN030CB OVC050
     FM261500 32010G18KT 4SM -RA BR OVC010
     FM261800 33010G20KT 2SM RA BR OVC007
     FM262000 34010G20KT 4SM -RA BR OVC015
     FM270000 35007KT P6SM BKN100=



000
FTUS44 KOHX 260900 AAG
TAFCKV
TAF AMD
KCKV 260949Z 2610/2706 30011KT 6SM -SHRA VCTS BKN030CB OVC050
     FM261500 32010G18KT 4SM -RA BR OVC010
     FM261800 33010G20KT 2SM RA BR OVC007
     FM262000 34010G20KT 4SM -RA BR OVC015
     FM270000 35007KT P6SM BKN100=



000
FTUS44 KOHX 260900 AAE
TAFBNA
TAF AMD
KBNA 260942Z 2610/2706 23010KT 5SM -SHRA BR OVC040
      TEMPO 2610/2612 30010G20KT 2SM -TSRA BR BKN030CB OVC040
     FM261200 30009G18KT P6SM BKN035 OVC050
     FM261800 33010G20KT 2SM RA BR OVC011
     FM262100 34010G20KT 4SM RA BR OVC015
     FM270200 34010KT P6SM BKN100=



000
FTUS44 KOHX 260900 AAF
TAFCKV
TAF AMD
KCKV 260941Z 2610/2706 30010G20KT P6SM -SHRA VCTS BKN035CB OVC050
     FM261500 32010G18KT 4SM -RA BR OVC010
     FM261800 33010G20KT 2SM RA BR OVC007
     FM262000 34010G20KT 4SM -RA BR OVC015
     FM270000 35007KT P6SM BKN100=



000
FTUS44 KOHX 260900 CCA
TAFBNA
TAF COR
KBNA 260935Z 2610/2706 23010KT 5SM -SHRA BR OVC040
      TEMPO 2610/2612 30010G20KT 2SM -TSRA BR BKN030CB OVC040
     FM261200 30009KT P6SM BKN035 OVC050
     FM261800 33010G20KT 2SM RA BR OVC011
     FM262100 34010G20KT 4SM RA BR OVC015
     FM270200 34010KT P6SM BKN100=



000
FTUS44 KOHX 260900 CCA
TAFBNA
TAF COR
KBNA 260935Z 2610/2706 23010KT 5SM -SHRA BR OVC040
      TEMPO 2610/2612 30010G20KT 2SM -TSRA BR BKN030CB OVC040
     FM261200 30009KT P6SM BKN035 OVC050
     FM261800 33010G20KT 2SM RA BR OVC011
     FM262100 34010G20KT 4SM RA BR OVC015
     FM270200 34010KT P6SM BKN100=



000
FTUS44 KOHX 260900 AAD
TAFBNA
TAF AMD
KBNA 260934Z 2610/2706 19010KT P6SM SCT050
     FM261000 21010KT 5SM -SHRA BR OVC040
      TEMPO 2610/2612 30010G20KT 2SM -TSRA BR BKN030CB OVC040
     FM261200 30009KT P6SM BKN035 OVC050
     FM261800 33010G20KT 2SM RA BR OVC011
     FM262100 34010G20KT 4SM RA BR OVC015
     FM270200 34010KT P6SM BKN100=



000
FTUS44 KOHX 260900 AAD
TAFBNA
TAF AMD
KBNA 260934Z 2610/2706 19010KT P6SM SCT050
     FM261000 21010KT 5SM -SHRA BR OVC040
      TEMPO 2610/2612 30010G20KT 2SM -TSRA BR BKN030CB OVC040
     FM261200 30009KT P6SM BKN035 OVC050
     FM261800 33010G20KT 2SM RA BR OVC011
     FM262100 34010G20KT 4SM RA BR OVC015
     FM270200 34010KT P6SM BKN100=



000
FTUS44 KOHX 260900 AAE
TAFCKV
TAF AMD
KCKV 260927Z 2609/2706 26010KT P6SM -SHRA VCTS SCT035CB OVC050
     FM261500 32010KT 4SM -RA BR OVC007
     FM261800 33010G20KT 2SM RA BR OVC007
     FM262000 34010G20KT 4SM -RA BR OVC015
     FM270000 35007KT P6SM BKN100=



000
FTUS44 KOHX 260900 AAC
TAFBNA
TAF AMD
KBNA 260906Z 2609/2706 19010KT P6SM SCT050
     FM261000 21010KT 5SM -SHRA BR OVC040
      TEMPO 2610/2612 2SM -TSRA BR BKN030CB OVC040
     FM261400 25009KT 6SM -RA BR OVC025
     FM261800 33010G20KT 2SM RA BR OVC007
     FM262100 34010G20KT 4SM RA BR OVC015
     FM270200 34010KT P6SM BKN100=



000
FTUS44 KOHX 260800 CCA
TAFCKV
TAF COR
KCKV 260825Z 2608/2706 26010KT 6SM -SHRA VCTS SCT025CB OVC050
      TEMPO 2608/2610 3SM -TSRA BR BKN030CB OVC050
     FM261300 32010KT 4SM -RA BR OVC007
     FM261600 33010G20KT 2SM RA BR OVC007
     FM262000 34010G20KT 4SM -RA BR OVC015
     FM270000 35007KT P6SM BKN100=



000
FTUS44 KOHX 260800 CCA
TAFCKV
TAF COR
KCKV 260825Z 2608/2706 26010KT 6SM -SHRA VCTS SCT025CB OVC050
      TEMPO 2608/2610 3SM -TSRA BR BKN030CB OVC050
     FM261300 32010KT 4SM -RA BR OVC007
     FM261600 33010G20KT 2SM RA BR OVC007
     FM262000 34010G20KT 4SM -RA BR OVC015
     FM270000 35007KT P6SM BKN100=



000
FTUS44 KOHX 260800 AAB
TAFBNA
TAF AMD
KBNA 260824Z 2608/2706 19010KT P6SM SCT050
     FM260900 21010KT 5SM -SHRA BR OVC040
      TEMPO 2609/2612 3SM -TSRA BR BKN030CB OVC040
     FM261400 25009KT 3SM -RA BR OVC025
     FM261800 33010G20KT 2SM RA BR OVC007
     FM262100 34010G20KT 4SM RA BR OVC015
     FM270200 34010KT P6SM BKN100=



000
FTUS44 KOHX 260800 AAB
TAFBNA
TAF AMD
KBNA 260824Z 2608/2706 19010KT P6SM SCT050
     FM260900 21010KT 5SM -SHRA BR OVC040
      TEMPO 2609/2612 3SM -TSRA BR BKN030CB OVC040
     FM261400 25009KT 3SM -RA BR OVC025
     FM261800 33010G20KT 2SM RA BR OVC007
     FM262100 34010G20KT 4SM RA BR OVC015
     FM270200 34010KT P6SM BKN100=



000
FTUS44 KOHX 260800 AAD
TAFCKV
TAF AMD
KCKV 260822Z 2608/2706 26010KT 5SM -SHRA VCTS SCT025CB OVC050
      TEMPO 2608/2610 3SM -TSRA BR BKN030CB OVC050
     FM261300 32010KT 4SM -RA BR OVC007
     FM261600 33010G20KT 2SM RA BR OVC007
     FM262000 34010G20KT 4SM -RA BR OVC015
     FM270000 35007KT P6SM BKN100=



000
FTUS44 KOHX 260800 AAD
TAFCKV
TAF AMD
KCKV 260822Z 2608/2706 26010KT 5SM -SHRA VCTS SCT025CB OVC050
      TEMPO 2608/2610 3SM -TSRA BR BKN030CB OVC050
     FM261300 32010KT 4SM -RA BR OVC007
     FM261600 33010G20KT 2SM RA BR OVC007
     FM262000 34010G20KT 4SM -RA BR OVC015
     FM270000 35007KT P6SM BKN100=



000
FTUS44 KOHX 260700 AAC
TAFCKV
TAF AMD
KCKV 260750Z 2608/2706 22008KT 6SM -SHRA VCTS SCT025CB OVC050
      TEMPO 2608/2610 3SM -RA BR BKN030 OVC050
     FM261300 28010KT 4SM -RA BR OVC007
     FM261600 33010G20KT 2SM RA BR OVC007
     FM262000 34010G20KT 4SM -RA BR OVC015
     FM270000 35007KT P6SM BKN100=



000
FTUS44 KOHX 260700 AAA
TAFBNA
TAF AMD
KBNA 260721Z 2607/2706 19010KT P6SM SCT050
     FM261000 21008KT 6SM -SHRA BR OVC040
     FM261500 25009KT 3SM -RA BR OVC025
     FM261800 33010G20KT 2SM RA BR OVC007
     FM262100 34010G20KT 4SM RA BR OVC015
     FM270200 34010KT P6SM BKN100=



000
FTUS44 KOHX 260700 AAA
TAFBNA
TAF AMD
KBNA 260721Z 2607/2706 19010KT P6SM SCT050
     FM261000 21008KT 6SM -SHRA BR OVC040
     FM261500 25009KT 3SM -RA BR OVC025
     FM261800 33010G20KT 2SM RA BR OVC007
     FM262100 34010G20KT 4SM RA BR OVC015
     FM270200 34010KT P6SM BKN100=



000
FTUS44 KOHX 260700 AAB
TAFCKV
TAF AMD
KCKV 260720Z 2607/2706 22008KT 6SM -SHRA VCTS SCT025CB OVC050
     FM261300 28010KT 4SM -RA BR OVC007
     FM261600 33010G20KT 2SM RA BR OVC007
     FM262000 34010G20KT 4SM -RA BR OVC015
     FM270000 35007KT P6SM BKN100=



000
FTUS44 KOHX 260600 AAA
TAFCKV
TAF AMD
KCKV 260614Z 2606/2706 16004KT P6SM OVC050
     FM260700 24008KT P6SM -SHRA VCTS SCT025CB OVC050
     FM261300 28010KT 4SM -RA BR OVC007
     FM261600 33010G20KT 2SM RA BR OVC007
     FM262000 34010G20KT 4SM -RA BR OVC015
     FM270000 35007KT P6SM BKN100=



000
FTUS44 KOHX 260600 AAA
TAFCKV
TAF AMD
KCKV 260614Z 2606/2706 16004KT P6SM OVC050
     FM260700 24008KT P6SM -SHRA VCTS SCT025CB OVC050
     FM261300 28010KT 4SM -RA BR OVC007
     FM261600 33010G20KT 2SM RA BR OVC007
     FM262000 34010G20KT 4SM -RA BR OVC015
     FM270000 35007KT P6SM BKN100=



000
FTUS44 KOHX 260500
TAFBNA
TAF
KBNA 260522Z 2606/2706 19010KT P6SM SCT050
     FM261200 21008KT 6SM -RA BR OVC040
     FM261500 25009KT 3SM -RA BR OVC025
     FM261800 33010G20KT 2SM RA BR OVC007
     FM262100 34010G20KT 4SM RA BR OVC015
     FM270200 34010KT P6SM BKN100=



000
FTUS44 KOHX 260500
TAFCSV
TAF
KCSV 260522Z 2606/2706 16008KT P6SM OVC060
     FM261400 19012KT P6SM VCSH OVC050
     FM261700 20009KT P6SM -SHRA OVC025
     FM262000 25010G20KT 5SM -RA BR OVC015
     FM262200 28010G18KT 2SM RA BR OVC007
     FM270300 34010KT 4SM -RA BR OVC004=



000
FTUS44 KOHX 260500
TAFCKV
TAF
KCKV 260522Z 2606/2706 16004KT P6SM OVC050
     FM260800 24008KT 5SM -TSRA BR OVC025CB
     FM261100 28010KT 4SM -RA BR OVC007
     FM261600 33010G20KT 2SM RA BR OVC007
     FM262000 34010G20KT 4SM -RA BR OVC015
     FM270000 35007KT P6SM BKN100=



000
FTUS44 KOHX 252300
TAFCKV
TAF
KCKV 252320Z 2600/2624 22008KT P6SM SCT050
     FM261000 23011KT P6SM VCSH OVC025
     FM261300 28009KT P6SM -SHRA OVC015
     FM261600 33010G20KT 5SM -RA BR OVC010
     FM261800 34010G20KT 2SM RA BR OVC007=



000
FTUS44 KOHX 252300
TAFBNA
TAF
KBNA 252320Z 2600/2624 19010KT P6SM SCT050
     FM261200 19012KT P6SM VCSH OVC025
     FM261500 27009KT P6SM -SHRA OVC015
     FM261800 33010G20KT 5SM -RA BR OVC007
     FM262000 34010G20KT 2SM RA BR OVC007=



000
FTUS44 KOHX 252300
TAFCSV
TAF
KCSV 252320Z 2600/2624 16008KT P6SM SCT050
     FM261400 19012KT P6SM VCSH OVC050
     FM261700 20009KT P6SM -SHRA OVC025
     FM262000 25010G20KT 5SM -RA BR OVC015
     FM262200 28010G18KT 2SM RA BR OVC007=



000
FTUS44 KOHX 252300
TAFBNA
TAF
KBNA 252320Z 2600/2624 19010KT P6SM SCT050
     FM261200 19012KT P6SM VCSH OVC025
     FM261500 27009KT P6SM -SHRA OVC015
     FM261800 33010G20KT 5SM -RA BR OVC007
     FM262000 34010G20KT 2SM RA BR OVC007=



000
FTUS44 KOHX 252300
TAFCKV
TAF
KCKV 252320Z 2600/2624 22008KT P6SM SCT050
     FM261000 23011KT P6SM VCSH OVC025
     FM261300 28009KT P6SM -SHRA OVC015
     FM261600 33010G20KT 5SM -RA BR OVC010
     FM261800 34010G20KT 2SM RA BR OVC007=



000
FTUS44 KOHX 252300
TAFCSV
TAF
KCSV 252320Z 2600/2624 16008KT P6SM SCT050
     FM261400 19012KT P6SM VCSH OVC050
     FM261700 20009KT P6SM -SHRA OVC025
     FM262000 25010G20KT 5SM -RA BR OVC015
     FM262200 28010G18KT 2SM RA BR OVC007=



000
FTUS44 KOHX 251900 AAA
TAFBNA
TAF AMD
KBNA 251950Z 2520/2618 20013G22KT P6SM BKN045
     FM260000 16010KT P6SM SCT050
     FM260900 19012KT P6SM VCSH OVC025=



000
FTUS44 KOHX 251700
TAFBNA
TAF
KBNA 251720Z 2518/2618 22013G22KT P6SM BKN045
     FM260000 16010KT P6SM SCT050
     FM260900 19012KT P6SM VCSH OVC025=



000
FTUS44 KOHX 251700
TAFCSV
TAF
KCSV 251720Z 2518/2618 20011G18KT P6SM BKN045
     FM260000 16006KT P6SM SCT050
     FM260900 20010KT P6SM OVC025=



000
FTUS44 KOHX 251700
TAFCKV
TAF
KCKV 251720Z 2518/2618 20012G21KT P6SM BKN045
     FM260000 16008KT P6SM SCT050
     FM260900 21011KT P6SM -SHRA OVC025=



000
FTUS44 KOHX 251700
TAFCKV
TAF
KCKV 251720Z 2518/2618 20012G21KT P6SM BKN045
     FM260000 16008KT P6SM SCT050
     FM260900 21011KT P6SM -SHRA OVC025=



000
FTUS44 KOHX 251700
TAFCSV
TAF
KCSV 251720Z 2518/2618 20011G18KT P6SM BKN045
     FM260000 16006KT P6SM SCT050
     FM260900 20010KT P6SM OVC025=



000
FTUS44 KOHX 251700
TAFBNA
TAF
KBNA 251720Z 2518/2618 22013G22KT P6SM BKN045
     FM260000 16010KT P6SM SCT050
     FM260900 19012KT P6SM VCSH OVC025=



000
FTUS44 KOHX 251400 AAA
TAFBNA
TAF AMD
KBNA 251407Z 2514/2612 20013G22KT P6SM BKN035 BKN050
     FM260100 16010KT P6SM OVC050
     FM260900 19012KT P6SM OVC025=



000
FTUS44 KOHX 251400 AAB
TAFCSV
TAF AMD
KCSV 251407Z 2514/2612 21012G20KT P6SM BKN035 OVC050
     FM260000 16006KT P6SM OVC050
     FM260900 20010KT P6SM OVC025=



000
FTUS44 KOHX 251200 AAA
TAFCSV
TAF AMD
KCSV 251235Z 2513/2612 21010KT P6SM BKN035 OVC050
     FM260000 16006KT P6SM OVC050
     FM260900 20010KT P6SM OVC025=



000
FTUS44 KOHX 251200 AAA
TAFCSV
TAF AMD
KCSV 251235Z 2513/2612 21010KT P6SM BKN035 OVC050
     FM260000 16006KT P6SM OVC050
     FM260900 20010KT P6SM OVC025=



    US Dept of Commerce
    National Oceanic and Atmospheric Administration
    National Weather Service
    1325 East West Highway
    Silver Spring, MD 20910
    Page Author: NWS Internet Services Team
Disclaimer
Information Quality
Credits
Glossary
Privacy Policy
Freedom of Information Act (FOIA)
About Us
Career Opportunities